createdAt,value
2023-10-28T00:00:55.364Z,20.6
2023-10-28T00:09:11.528Z,20.6
2023-10-28T00:17:27.748Z,20.5
2023-10-28T00:25:43.981Z,20.5
2023-10-28T00:34:00.168Z,20.5
2023-10-28T00:42:16.386Z,20.5
2023-10-28T00:50:32.595Z,20.5
2023-10-28T00:58:48.762Z,20.5
2023-10-28T01:07:04.981Z,20.5
2023-10-28T01:15:21.220Z,20.5
2023-10-28T01:23:37.406Z,20.5
2023-10-28T01:31:53.639Z,20.4
2023-10-28T01:40:09.869Z,20.5
2023-10-28T01:48:25.938Z,20.5
2023-10-28T01:56:42.118Z,20.5
2023-10-28T02:04:58.322Z,20.5
2023-10-28T02:13:14.474Z,20.4
2023-10-28T02:21:30.659Z,20.4
2023-10-28T02:29:46.997Z,20.3
2023-10-28T02:38:03.057Z,20.3
2023-10-28T02:46:19.237Z,20.3
2023-10-28T02:54:35.414Z,20.4
2023-10-28T03:02:51.637Z,20.4
2023-10-28T03:11:07.784Z,20.4
2023-10-28T03:19:23.969Z,20.4
2023-10-28T03:27:40.156Z,20.5
2023-10-28T03:35:56.339Z,20.5
2023-10-28T03:44:12.536Z,20.5
2023-10-28T03:52:28.737Z,20.5
2023-10-28T04:00:44.925Z,20.5
2023-10-28T04:09:01.105Z,20.5
2023-10-28T04:17:17.346Z,20.5
2023-10-28T04:25:33.549Z,20.5
2023-10-28T04:33:49.774Z,20.5
2023-10-28T04:42:05.936Z,20.5
2023-10-28T04:50:22.098Z,20.5
2023-10-28T04:58:38.309Z,20.5
2023-10-28T05:06:54.495Z,20.5
2023-10-28T05:15:10.721Z,20.5
2023-10-28T05:23:26.913Z,20.5
2023-10-28T05:31:43.181Z,20.5
2023-10-28T05:39:59.305Z,20.5
2023-10-28T05:48:15.541Z,20.5
2023-10-28T05:56:31.880Z,20.5
2023-10-28T06:04:47.957Z,20.5
2023-10-28T06:13:04.102Z,20.5
2023-10-28T06:21:20.301Z,20.5
2023-10-28T06:29:36.590Z,20.5
2023-10-28T06:37:52.742Z,20.5
2023-10-28T06:46:08.930Z,20.4
2023-10-28T06:54:25.272Z,20.4
2023-10-28T07:02:41.368Z,20.5
2023-10-28T07:10:57.536Z,20.5
2023-10-28T07:19:13.762Z,20.5
2023-10-28T07:27:29.943Z,20.5
2023-10-28T07:44:02.339Z,18.6
2023-10-28T07:52:18.393Z,18.1
2023-10-28T08:00:34.508Z,14.8
2023-10-28T08:08:50.565Z,12.3
2023-10-28T08:17:06.618Z,12.1
2023-10-28T08:25:22.441Z,11.9
2023-10-28T08:33:38.342Z,12
2023-10-28T08:41:54.238Z,12
2023-10-28T08:50:10.134Z,12.1
2023-10-28T08:58:25.962Z,12.2
2023-10-28T09:06:41.866Z,12.3
2023-10-28T09:14:57.781Z,12.4
2023-10-28T09:31:29.580Z,12.6
2023-10-28T09:39:45.684Z,12.8
2023-10-28T09:48:01.482Z,12.9
2023-10-28T09:56:17.318Z,13.1
2023-10-28T10:04:33.167Z,13.5
2023-10-28T10:12:49.118Z,13.6
2023-10-28T10:21:05.132Z,13.8
2023-10-28T10:29:21.003Z,14
2023-10-28T10:37:36.949Z,14
2023-10-28T10:45:52.975Z,14.1
2023-10-28T10:54:08.891Z,14.3
2023-10-28T11:02:24.905Z,14.4
2023-10-28T11:10:40.819Z,14.6
2023-10-28T11:18:56.730Z,14.8
2023-10-28T11:27:12.715Z,15
2023-10-28T11:43:44.730Z,15.1
2023-10-28T11:52:00.732Z,15.2
2023-10-28T12:08:32.688Z,14.9
2023-10-28T12:16:48.727Z,14.9
2023-10-28T12:25:04.701Z,15.1
2023-10-28T12:33:20.773Z,15.5
2023-10-28T12:41:36.846Z,15.5
2023-10-28T12:49:52.720Z,15.8
2023-10-28T12:58:08.783Z,16.3
2023-10-28T13:06:24.834Z,16.7
2023-10-28T13:14:40.858Z,16.5
2023-10-28T13:22:56.961Z,17
2023-10-28T13:31:13.032Z,20.7
2023-10-28T13:39:29.193Z,21.8
2023-10-28T13:47:45.398Z,20.7
2023-10-28T14:04:17.755Z,19.7
2023-10-28T14:12:33.796Z,18.3
2023-10-28T14:20:49.930Z,17.8
2023-10-28T14:29:06.085Z,17.5
2023-10-28T14:37:22.141Z,17.1
2023-10-28T14:45:38.253Z,16.8
2023-10-28T14:53:54.348Z,16.7
2023-10-28T15:02:10.424Z,17.1
2023-10-28T15:10:26.497Z,17.1
2023-10-28T15:18:42.576Z,17
2023-10-28T15:26:58.699Z,16.8
2023-10-28T15:35:14.731Z,16.4
2023-10-28T15:43:30.781Z,16.2
2023-10-28T16:00:02.881Z,16.1
2023-10-28T16:08:18.929Z,15.7
2023-10-28T16:16:34.929Z,15.3
2023-10-28T16:24:50.948Z,15
2023-10-28T16:33:07.078Z,14.8
2023-10-28T16:41:22.998Z,14.6
2023-10-28T16:49:38.909Z,14.5
2023-10-28T16:57:54.884Z,14.4
2023-10-28T17:06:10.829Z,14.2
2023-10-28T17:14:26.784Z,14
2023-10-28T17:22:42.736Z,14.1
2023-10-28T17:30:58.655Z,14.1
2023-10-28T17:39:17.642Z,13.8
2023-10-28T17:47:30.584Z,13.7
2023-10-28T18:12:18.303Z,13.3
2023-10-28T19:01:53.921Z,13
2023-10-28T19:18:25.698Z,13.2
2023-10-28T19:26:41.645Z,13.4
2023-10-28T19:34:57.480Z,13.3
2023-10-28T19:43:13.488Z,13.3
2023-10-28T19:51:29.319Z,13.3
2023-10-28T19:59:45.274Z,13.2
2023-10-28T20:16:17.079Z,13
2023-10-28T20:32:48.914Z,12.5
2023-10-28T20:41:04.758Z,12.3
2023-10-28T20:49:20.565Z,12
2023-10-28T21:05:52.347Z,11.8
2023-10-28T21:14:08.193Z,11.7
2023-10-28T21:22:24.034Z,11.5
2023-10-28T21:30:39.922Z,11.4
2023-10-28T21:38:55.766Z,11.3
2023-10-28T21:55:27.469Z,11.3
